createdAt,value
2023-12-26T00:01:00.337Z,6.03
2023-12-26T00:03:45.004Z,6.02
2023-12-26T00:06:28.295Z,5.98
2023-12-26T00:09:12.076Z,6.13
2023-12-26T00:11:55.565Z,6.14
2023-12-26T00:14:40.005Z,6.09
2023-12-26T00:17:23.418Z,6.10
2023-12-26T00:20:10.049Z,6.19
2023-12-26T00:22:53.498Z,6.19
2023-12-26T00:25:36.756Z,6.25
2023-12-26T00:28:20.871Z,6.30
2023-12-26T00:31:04.017Z,6.15
2023-12-26T00:33:47.289Z,6.27
2023-12-26T00:36:31.985Z,6.17
2023-12-26T00:39:15.563Z,6.14
2023-12-26T00:41:58.907Z,6.13
2023-12-26T00:44:42.342Z,6.02
2023-12-26T00:47:25.715Z,5.78
2023-12-26T00:50:13.222Z,5.82
2023-12-26T00:52:58.231Z,5.67
2023-12-26T00:55:41.549Z,5.61
2023-12-26T00:58:25.040Z,5.72
2023-12-26T01:01:08.400Z,5.64
2023-12-26T01:03:51.697Z,5.31
2023-12-26T01:06:35.060Z,4.79
2023-12-26T01:09:19.692Z,4.55
2023-12-26T01:12:03.224Z,4.34
2023-12-26T01:14:46.601Z,4.23
2023-12-26T01:17:29.789Z,4.26
2023-12-26T01:20:13.203Z,4.28
2023-12-26T01:22:56.637Z,4.47
2023-12-26T01:25:41.385Z,4.49
2023-12-26T01:28:24.620Z,4.44
2023-12-26T01:31:07.822Z,4.41
2023-12-26T01:33:51.211Z,4.48
2023-12-26T01:36:37.441Z,4.45
2023-12-26T01:39:22.301Z,4.55
2023-12-26T01:42:07.493Z,4.63
2023-12-26T01:44:50.753Z,4.82
2023-12-26T01:47:34.882Z,4.96
2023-12-26T01:50:18.461Z,4.85
2023-12-26T01:53:01.842Z,4.95
2023-12-26T01:55:45.129Z,4.97
2023-12-26T01:58:29.879Z,5.00
2023-12-26T02:01:14.680Z,4.97
2023-12-26T02:03:58.513Z,4.98
2023-12-26T02:06:41.752Z,4.94
2023-12-26T02:09:26.340Z,5.03
2023-12-26T02:12:10.433Z,5.05
2023-12-26T02:14:55.159Z,5.14
2023-12-26T02:17:39.286Z,5.15
2023-12-26T02:20:22.584Z,5.38
2023-12-26T02:23:06.080Z,5.33
2023-12-26T02:25:52.464Z,5.34
2023-12-26T02:28:36.984Z,5.26
2023-12-26T02:31:21.201Z,5.35
2023-12-26T02:34:05.000Z,5.45
2023-12-26T02:36:48.340Z,5.14
2023-12-26T02:39:31.577Z,4.93
2023-12-26T02:42:19.468Z,4.75
2023-12-26T02:45:02.665Z,4.68
2023-12-26T02:47:45.947Z,4.52
2023-12-26T02:50:29.239Z,4.41
2023-12-26T02:53:12.514Z,4.38
2023-12-26T02:55:55.719Z,4.34
2023-12-26T02:58:41.604Z,4.15
2023-12-26T03:01:24.743Z,4.02
2023-12-26T03:04:08.239Z,3.92
2023-12-26T03:06:51.567Z,3.79
2023-12-26T03:09:34.727Z,3.58
2023-12-26T03:12:17.946Z,3.48
2023-12-26T03:15:02.687Z,3.30
2023-12-26T03:17:46.107Z,3.20
2023-12-26T03:20:29.468Z,3.26
2023-12-26T03:23:12.640Z,3.25
2023-12-26T03:25:55.741Z,3.19
2023-12-26T03:28:38.871Z,3.16
2023-12-26T03:31:23.422Z,3.07
2023-12-26T03:34:06.814Z,3.11
2023-12-26T03:36:50.426Z,3.10
2023-12-26T03:39:33.933Z,3.16
2023-12-26T03:42:17.251Z,3.04
2023-12-26T03:45:00.600Z,3.11
2023-12-26T03:47:45.368Z,3.37
2023-12-26T03:50:28.802Z,3.35
2023-12-26T03:53:12.001Z,3.42
2023-12-26T03:55:55.159Z,3.41
2023-12-26T03:58:38.341Z,3.36
2023-12-26T04:01:21.499Z,3.44
2023-12-26T04:04:06.593Z,3.50
2023-12-26T04:06:49.866Z,3.40
2023-12-26T04:09:32.965Z,3.40
2023-12-26T04:12:16.202Z,3.39
2023-12-26T04:14:59.396Z,3.38
2023-12-26T04:17:42.912Z,3.34
2023-12-26T04:20:27.507Z,3.45
2023-12-26T04:23:10.732Z,3.47
2023-12-26T04:25:53.925Z,3.40
2023-12-26T04:28:37.061Z,3.46
2023-12-26T04:31:20.254Z,3.43
2023-12-26T04:34:03.508Z,3.24
2023-12-26T04:36:48.158Z,3.18
2023-12-26T04:39:31.321Z,2.98
2023-12-26T04:42:14.493Z,2.89
2023-12-26T04:44:57.785Z,2.66
2023-12-26T04:47:41.023Z,2.57
2023-12-26T04:50:24.329Z,2.61
2023-12-26T04:53:11.009Z,2.56
2023-12-26T04:55:54.266Z,2.55
2023-12-26T04:58:37.464Z,2.60
2023-12-26T05:01:22.120Z,2.62
2023-12-26T05:04:05.496Z,2.55
2023-12-26T05:06:48.695Z,2.56
2023-12-26T05:09:33.242Z,2.57
2023-12-26T05:12:16.457Z,2.44
2023-12-26T05:14:59.651Z,2.29
2023-12-26T05:17:42.943Z,2.27
2023-12-26T05:20:30.900Z,2.33
2023-12-26T05:23:14.995Z,2.29
2023-12-26T05:26:05.019Z,2.35
2023-12-26T05:28:54.538Z,2.35
2023-12-26T05:31:39.297Z,2.37
2023-12-26T05:34:22.553Z,2.34
2023-12-26T05:37:06.100Z,2.45
2023-12-26T05:39:49.278Z,2.54
2023-12-26T05:42:33.903Z,2.62
2023-12-26T05:45:18.258Z,2.76
2023-12-26T05:48:01.969Z,2.76
2023-12-26T05:50:45.462Z,2.80
2023-12-26T05:53:30.876Z,2.67
2023-12-26T05:56:14.073Z,2.40
2023-12-26T05:58:58.644Z,2.35
2023-12-26T06:01:46.816Z,2.39
2023-12-26T06:04:30.049Z,2.33
2023-12-26T06:07:14.087Z,2.24
2023-12-26T06:09:57.309Z,2.26
2023-12-26T06:12:41.847Z,2.14
2023-12-26T06:15:26.824Z,2.17
2023-12-26T06:18:10.140Z,2.23
2023-12-26T06:20:53.350Z,2.33
2023-12-26T06:23:36.504Z,2.51
2023-12-26T06:26:19.688Z,2.58
2023-12-26T06:29:02.851Z,2.77
2023-12-26T06:31:47.477Z,2.67
2023-12-26T06:34:33.837Z,2.86
2023-12-26T06:37:17.083Z,2.79
2023-12-26T06:40:00.219Z,2.91
2023-12-26T06:42:43.985Z,3.04
2023-12-26T06:45:27.337Z,3.06
2023-12-26T06:48:12.040Z,3.16
2023-12-26T06:50:55.265Z,3.13
2023-12-26T06:53:38.486Z,3.29
2023-12-26T06:56:21.750Z,3.41
2023-12-26T06:59:04.979Z,3.56
2023-12-26T07:01:48.509Z,3.77
2023-12-26T07:04:33.118Z,3.96
2023-12-26T07:07:16.312Z,4.54
2023-12-26T07:09:59.435Z,6.23
2023-12-26T07:12:42.655Z,8.45
2023-12-26T07:15:27.000Z,10.14
2023-12-26T07:18:10.891Z,11.45
2023-12-26T07:20:55.607Z,11.81
2023-12-26T07:23:38.878Z,13.32
2023-12-26T07:26:23.428Z,13.93
2023-12-26T07:29:06.705Z,14.07
2023-12-26T07:31:53.898Z,14.73
2023-12-26T07:34:37.351Z,15.17
2023-12-26T07:37:21.932Z,15.27
2023-12-26T07:40:07.731Z,15.28
2023-12-26T07:42:50.886Z,16.59
2023-12-26T07:45:34.052Z,17.31
2023-12-26T07:48:17.726Z,17.50
2023-12-26T07:51:01.082Z,18.09
2023-12-26T07:53:45.743Z,18.12
2023-12-26T07:56:29.124Z,19.24
2023-12-26T07:59:12.506Z,19.70
2023-12-26T08:01:57.002Z,18.92
2023-12-26T08:04:40.821Z,19.68
2023-12-26T08:07:23.988Z,20.18
2023-12-26T08:10:09.016Z,18.90
2023-12-26T08:12:52.219Z,18.29
2023-12-26T08:15:35.397Z,19.13
2023-12-26T08:18:18.681Z,20.24
2023-12-26T08:21:02.348Z,20.04
2023-12-26T08:23:45.573Z,20.61
2023-12-26T08:26:33.910Z,20.81
2023-12-26T08:29:17.088Z,21.54
2023-12-26T08:32:00.333Z,20.06
2023-12-26T08:34:45.540Z,19.74
2023-12-26T08:37:28.882Z,19.28
2023-12-26T08:40:12.266Z,19.93
2023-12-26T08:42:57.082Z,20.35
2023-12-26T08:45:40.508Z,21.27
2023-12-26T08:48:23.778Z,21.76
2023-12-26T08:51:06.995Z,22.33
2023-12-26T08:53:50.349Z,22.54
2023-12-26T08:56:33.701Z,22.69
2023-12-26T08:59:20.989Z,22.85
2023-12-26T09:02:04.429Z,22.63
2023-12-26T09:04:49.023Z,22.24
2023-12-26T09:07:32.248Z,20.60
2023-12-26T09:10:15.520Z,19.26
2023-12-26T09:12:59.295Z,18.67
2023-12-26T09:15:44.641Z,17.18
2023-12-26T09:18:27.973Z,16.56
2023-12-26T09:21:12.252Z,15.94
2023-12-26T09:23:55.591Z,15.29
2023-12-26T09:26:38.799Z,14.74
2023-12-26T09:29:21.950Z,14.56
2023-12-26T09:32:07.314Z,13.96
2023-12-26T09:34:50.609Z,13.41
2023-12-26T09:37:36.419Z,13.32
2023-12-26T09:40:20.511Z,13.11
2023-12-26T09:43:05.725Z,12.94
2023-12-26T09:45:49.025Z,12.70
2023-12-26T09:48:35.366Z,12.51
2023-12-26T09:51:23.711Z,12.87
2023-12-26T09:54:07.863Z,13.59
2023-12-26T09:56:51.733Z,14.05
2023-12-26T09:59:38.167Z,14.92
2023-12-26T10:02:21.431Z,15.35
2023-12-26T10:05:07.362Z,16.15
2023-12-26T10:07:50.560Z,17.69
2023-12-26T10:10:33.880Z,19.11
2023-12-26T10:13:17.266Z,20.66
2023-12-26T10:16:00.548Z,22.00
2023-12-26T10:18:44.006Z,23.08
2023-12-26T10:21:34.172Z,23.60
2023-12-26T10:24:20.631Z,24.39
2023-12-26T10:27:04.139Z,24.36
2023-12-26T10:29:52.582Z,24.75
2023-12-26T10:32:36.393Z,25.24
2023-12-26T10:35:19.700Z,25.00
2023-12-26T10:38:04.367Z,24.89
2023-12-26T10:40:47.544Z,24.95
2023-12-26T10:43:34.453Z,24.87
2023-12-26T10:46:21.324Z,24.77
2023-12-26T10:49:06.925Z,24.32
2023-12-26T10:51:53.874Z,24.92
2023-12-26T10:54:40.223Z,25.62
2023-12-26T10:57:25.688Z,26.26
2023-12-26T11:01:03.616Z,26.51
2023-12-26T11:04:41.186Z,26.42
2023-12-26T11:08:18.855Z,26.23
2023-12-26T11:11:58.576Z,26.41
2023-12-26T11:15:37.846Z,26.95
2023-12-26T11:19:15.685Z,27.26
2023-12-26T11:22:53.993Z,26.76
2023-12-26T11:26:31.970Z,26.91
2023-12-26T11:30:09.817Z,27.62
2023-12-26T11:33:48.000Z,28.01
2023-12-26T11:37:26.013Z,28.36
2023-12-26T11:41:04.135Z,28.13
2023-12-26T11:44:42.610Z,28.00
2023-12-26T11:48:20.767Z,28.04
2023-12-26T11:51:58.911Z,27.12
2023-12-26T11:55:36.896Z,26.49
2023-12-26T11:59:14.936Z,24.15
2023-12-26T12:02:52.850Z,22.33
2023-12-26T12:06:30.766Z,20.89
2023-12-26T12:10:08.446Z,19.77
2023-12-26T12:13:46.422Z,18.99
2023-12-26T12:17:24.201Z,18.52
2023-12-26T12:21:02.009Z,18.22
2023-12-26T12:24:40.011Z,17.39
2023-12-26T12:28:17.717Z,17.45
2023-12-26T12:31:55.665Z,17.12
2023-12-26T12:35:33.626Z,16.86
2023-12-26T12:39:11.707Z,16.65
2023-12-26T12:42:49.561Z,16.54
2023-12-26T12:46:27.349Z,16.41
2023-12-26T12:50:05.636Z,16.21
2023-12-26T12:53:43.592Z,16.20
2023-12-26T12:57:21.638Z,16.12
2023-12-26T13:01:02.657Z,16.05
2023-12-26T13:04:41.709Z,15.90
2023-12-26T13:08:19.527Z,15.54
2023-12-26T13:11:57.315Z,15.34
2023-12-26T13:15:35.238Z,15.15
2023-12-26T13:19:13.160Z,14.92
2023-12-26T13:22:51.080Z,14.71
2023-12-26T13:26:29.210Z,14.62
2023-12-26T13:30:07.100Z,14.45
2023-12-26T13:33:44.817Z,14.42
2023-12-26T13:37:22.998Z,14.38
2023-12-26T13:41:00.942Z,14.29
2023-12-26T13:44:38.633Z,14.24
2023-12-26T13:48:16.523Z,14.33
2023-12-26T13:51:29.114Z,14.34
2023-12-26T13:54:13.768Z,14.39
2023-12-26T13:57:33.778Z,14.24
2023-12-26T14:00:54.891Z,14.06
2023-12-26T14:04:15.324Z,14.09
2023-12-26T14:07:35.880Z,14.05
2023-12-26T14:10:55.884Z,13.97
2023-12-26T14:14:16.058Z,13.91
2023-12-26T14:17:36.261Z,13.79
2023-12-26T14:20:56.837Z,13.81
2023-12-26T14:24:17.287Z,13.65
2023-12-26T14:27:38.482Z,13.57
2023-12-26T14:31:01.337Z,13.65
2023-12-26T14:34:24.040Z,13.48
2023-12-26T14:37:44.351Z,13.40
2023-12-26T14:41:07.120Z,13.36
2023-12-26T14:44:27.267Z,13.26
2023-12-26T14:47:47.392Z,13.14
2023-12-26T14:51:08.071Z,12.97
2023-12-26T14:54:28.579Z,12.89
2023-12-26T14:57:49.220Z,12.82
2023-12-26T15:01:09.597Z,12.76
2023-12-26T15:04:00.569Z,12.45
2023-12-26T15:06:44.108Z,12.33
2023-12-26T15:09:29.337Z,12.21
2023-12-26T15:12:13.351Z,12.15
2023-12-26T15:14:57.653Z,12.18
2023-12-26T15:17:41.559Z,12.03
2023-12-26T15:20:26.670Z,11.87
2023-12-26T15:23:10.179Z,11.87
2023-12-26T15:25:54.334Z,11.91
2023-12-26T15:28:37.766Z,11.80
2023-12-26T15:31:22.191Z,11.42
2023-12-26T15:34:05.847Z,11.31
2023-12-26T15:36:51.378Z,11.30
2023-12-26T15:39:35.700Z,11.11
2023-12-26T15:42:19.229Z,11.18
2023-12-26T15:45:03.121Z,11.00
2023-12-26T15:47:46.603Z,10.79
2023-12-26T15:50:30.181Z,10.50
2023-12-26T15:53:15.157Z,10.51
2023-12-26T15:55:58.543Z,10.33
2023-12-26T15:58:42.235Z,10.29
2023-12-26T16:01:26.430Z,10.10
2023-12-26T16:04:09.873Z,10.01
2023-12-26T16:06:54.065Z,10.15
2023-12-26T16:09:39.287Z,10.18
2023-12-26T16:12:23.057Z,10.37
2023-12-26T16:15:08.116Z,10.23
2023-12-26T16:17:52.418Z,10.17
2023-12-26T16:20:36.285Z,9.90
2023-12-26T16:23:19.720Z,9.91
2023-12-26T16:26:07.328Z,9.57
2023-12-26T16:28:53.398Z,9.63
2023-12-26T16:31:36.805Z,9.58
2023-12-26T16:34:20.358Z,9.55
2023-12-26T16:37:03.743Z,9.49
2023-12-26T16:39:47.452Z,9.42
2023-12-26T16:42:32.385Z,9.41
2023-12-26T16:45:17.345Z,9.42
2023-12-26T16:48:01.794Z,9.31
2023-12-26T16:50:45.206Z,9.24
2023-12-26T16:53:28.583Z,9.25
2023-12-26T16:56:12.945Z,9.28
2023-12-26T16:58:57.828Z,9.17
2023-12-26T17:01:44.278Z,8.90
2023-12-26T17:04:27.758Z,8.87
2023-12-26T17:07:11.025Z,8.85
2023-12-26T17:09:54.468Z,8.97
2023-12-26T17:12:37.942Z,8.88
2023-12-26T17:15:22.837Z,8.89
2023-12-26T17:18:06.780Z,8.66
2023-12-26T17:20:50.391Z,8.65
2023-12-26T17:23:35.288Z,8.71
2023-12-26T17:26:20.412Z,8.82
2023-12-26T17:29:03.707Z,8.68
2023-12-26T17:31:55.979Z,8.64
2023-12-26T17:34:42.262Z,8.56
2023-12-26T17:37:25.719Z,8.75
2023-12-26T17:40:10.896Z,8.73
2023-12-26T17:42:54.325Z,8.54
2023-12-26T17:45:38.055Z,8.37
2023-12-26T17:48:23.962Z,8.42
2023-12-26T17:51:07.564Z,8.28
2023-12-26T17:53:50.966Z,8.13
2023-12-26T17:56:34.535Z,8.06
2023-12-26T17:59:19.070Z,8.05
2023-12-26T18:02:02.356Z,8.02
2023-12-26T18:04:47.111Z,7.99
2023-12-26T18:07:30.432Z,8.15
2023-12-26T18:10:13.885Z,8.12
2023-12-26T18:12:57.517Z,7.98
2023-12-26T18:15:40.865Z,7.96
2023-12-26T18:18:25.189Z,8.07
2023-12-26T18:21:10.049Z,7.80
2023-12-26T18:23:53.580Z,7.54
2023-12-26T18:26:37.062Z,7.78
2023-12-26T18:29:20.239Z,7.74
2023-12-26T18:32:03.767Z,7.67
2023-12-26T18:34:47.492Z,7.67
2023-12-26T18:37:32.216Z,7.58
2023-12-26T18:40:15.773Z,7.54
2023-12-26T18:42:59.001Z,7.48
2023-12-26T18:45:42.522Z,7.27
2023-12-26T18:48:27.894Z,7.07
2023-12-26T18:51:11.219Z,6.98
2023-12-26T18:53:56.480Z,7.00
2023-12-26T18:56:39.809Z,6.88
2023-12-26T18:59:23.091Z,6.93
2023-12-26T19:02:06.838Z,6.88
2023-12-26T19:04:50.783Z,6.93
2023-12-26T19:07:34.201Z,6.88
2023-12-26T19:10:19.265Z,6.77
2023-12-26T19:13:03.023Z,6.69
2023-12-26T19:15:46.342Z,6.65
2023-12-26T19:18:29.724Z,6.60
2023-12-26T19:21:13.066Z,6.57
2023-12-26T19:23:56.330Z,6.45
2023-12-26T19:26:40.994Z,6.47
2023-12-26T19:29:24.416Z,6.40
2023-12-26T19:32:08.549Z,6.42
2023-12-26T19:34:52.226Z,6.25
2023-12-26T19:37:35.523Z,6.30
2023-12-26T19:40:18.794Z,6.22
2023-12-26T19:43:03.545Z,6.25
2023-12-26T19:45:46.708Z,6.12
2023-12-26T19:48:30.225Z,6.19
2023-12-26T19:51:13.570Z,6.31
2023-12-26T19:53:57.033Z,6.36
2023-12-26T19:56:41.431Z,6.46
2023-12-26T19:59:26.062Z,6.55
2023-12-26T20:02:09.426Z,6.51
2023-12-26T20:04:52.771Z,6.51
2023-12-26T20:07:37.530Z,6.60
2023-12-26T20:10:20.825Z,6.49
2023-12-26T20:13:04.681Z,6.33
2023-12-26T20:15:50.385Z,6.20
2023-12-26T20:18:33.989Z,6.22
2023-12-26T20:21:17.364Z,6.22
2023-12-26T20:24:00.637Z,6.31
2023-12-26T20:26:47.575Z,6.25
2023-12-26T20:29:30.710Z,6.40
2023-12-26T20:32:15.859Z,6.36
2023-12-26T20:34:58.977Z,6.32
2023-12-26T20:37:42.117Z,6.18
2023-12-26T20:40:25.221Z,6.12
2023-12-26T20:43:08.328Z,6.12
2023-12-26T20:45:51.430Z,5.93
2023-12-26T20:48:36.274Z,5.96
2023-12-26T20:51:20.678Z,6.14
2023-12-26T20:54:03.806Z,6.22
2023-12-26T20:56:47.374Z,6.15
2023-12-26T20:59:30.810Z,6.21
2023-12-26T21:02:15.800Z,6.27
2023-12-26T21:05:00.261Z,6.28
2023-12-26T21:07:43.371Z,6.32
2023-12-26T21:10:26.497Z,6.26
2023-12-26T21:13:09.600Z,6.43
2023-12-26T21:15:53.715Z,6.33
2023-12-26T21:18:38.055Z,6.23
2023-12-26T21:21:23.469Z,6.15
2023-12-26T21:24:07.760Z,6.20
2023-12-26T21:26:51.216Z,6.18
2023-12-26T21:29:34.903Z,6.04
2023-12-26T21:32:17.939Z,5.94
2023-12-26T21:35:01.176Z,6.04
2023-12-26T21:37:45.693Z,6.08
2023-12-26T21:40:28.841Z,5.95
2023-12-26T21:43:11.959Z,5.96
2023-12-26T21:45:55.018Z,5.92
2023-12-26T21:48:38.627Z,5.89
2023-12-26T21:51:21.892Z,5.84
2023-12-26T21:54:06.477Z,5.78
2023-12-26T21:56:50.589Z,5.76
2023-12-26T21:59:33.842Z,5.75
2023-12-26T22:02:18.324Z,5.69
2023-12-26T22:05:01.420Z,5.72
2023-12-26T22:07:44.636Z,5.65
2023-12-26T22:10:29.152Z,5.55
2023-12-26T22:13:13.903Z,5.52
2023-12-26T22:15:57.131Z,5.46
2023-12-26T22:18:40.425Z,5.25
2023-12-26T22:21:23.940Z,5.16
2023-12-26T22:24:07.607Z,5.07
2023-12-26T22:26:52.272Z,5.08
2023-12-26T22:29:35.460Z,5.14
2023-12-26T22:32:20.072Z,5.13
2023-12-26T22:35:04.018Z,5.14
2023-12-26T22:37:47.443Z,5.13
2023-12-26T22:40:30.581Z,5.08
2023-12-26T22:43:15.143Z,5.15
2023-12-26T22:45:58.203Z,5.27
2023-12-26T22:48:42.113Z,5.45
2023-12-26T22:51:25.540Z,5.35
2023-12-26T22:54:08.769Z,5.36
2023-12-26T22:56:51.928Z,5.25
2023-12-26T22:59:36.395Z,5.27
2023-12-26T23:02:19.551Z,5.06
2023-12-26T23:05:02.810Z,4.94
2023-12-26T23:07:45.905Z,5.11
2023-12-26T23:10:29.157Z,4.98
2023-12-26T23:13:13.671Z,4.93
2023-12-26T23:15:58.135Z,4.90
2023-12-26T23:18:41.468Z,4.83
2023-12-26T23:21:25.251Z,4.89
2023-12-26T23:24:09.033Z,4.88
2023-12-26T23:26:52.185Z,4.87
2023-12-26T23:29:35.301Z,4.91
2023-12-26T23:32:19.731Z,4.80
2023-12-26T23:35:03.081Z,4.64
2023-12-26T23:37:46.382Z,4.59
2023-12-26T23:40:29.484Z,4.49
2023-12-26T23:43:12.829Z,4.45
2023-12-26T23:45:56.015Z,4.43
2023-12-26T23:48:42.039Z,4.32
2023-12-26T23:51:25.553Z,4.13
2023-12-26T23:54:08.785Z,4.03
2023-12-26T23:56:52.064Z,4.10
2023-12-26T23:59:35.198Z,4.15
